Time;durP1;ratioP1;P1;durP2;ratioP2;P2;SDS_P1;SDS_P2;PMS_P1;PMS_P2;Temp;Humidity;BMP_temperature;BMP_pressure;BME280_temperature;BME280_humidity;BME280_pressure;Samples;Min_cycle;Max_cycle;Signal;HPM_P1;HPM_P2
2021/04/29 04:00:25;;;;;;;2.65;2.45;;;;;;;24.02;47.45;97146.63;24733687;23;21974;31
2021/04/29 04:10:27;;;;;;;3.20;3.00;;;;;;;24.02;47.32;97151.06;20105088;29;20321;-66
2021/04/29 04:20:29;;;;;;;3.23;3.03;;;;;;;24.02;47.48;97166.75;20188570;29;20278;-66
2021/04/29 04:30:31;;;;;;;3.03;2.83;;;;;;;24.01;47.56;97183.47;20187541;29;20223;-66
2021/04/29 04:40:33;;;;;;;2.70;2.60;;;;;;;24.00;47.53;97190.53;20187946;29;20227;-66
2021/04/29 04:50:36;;;;;;;2.53;2.40;;;;;;;24.00;47.55;97206.22;20185869;29;20222;-66
2021/04/29 05:00:37;;;;;;;2.50;2.40;;;;;;;24.00;47.46;97221.94;20185251;29;20223;-66
2021/04/29 05:10:40;;;;;;;2.60;2.43;;;;;;;24.00;47.59;97229.78;20179985;29;20591;-66
2021/04/29 05:20:41;;;;;;;3.10;2.90;;;;;;;24.03;47.54;97234.56;20179015;29;20226;-67
2021/04/29 05:30:44;;;;;;;3.20;2.90;;;;;;;24.01;47.56;97244.47;20180564;29;20245;-67
2021/04/29 05:40:46;;;;;;;2.57;2.47;;;;;;;24.02;47.71;97261.78;20179913;29;20291;-68
2021/04/29 05:50:48;;;;;;;5.87;3.60;;;;;;;24.04;47.68;97269.41;20183825;29;20294;-67
2021/04/29 06:00:50;;;;;;;15.30;5.87;;;;;;;23.30;46.64;97264.16;20186387;29;20298;-67
2021/04/29 06:10:52;;;;;;;5.17;4.67;;;;;;;23.55;46.82;97278.03;20173487;29;20326;-67
2021/04/29 06:20:54;;;;;;;4.20;3.80;;;;;;;23.67;46.79;97289.44;20175387;29;20223;-69
2021/04/29 06:30:56;;;;;;;5.27;4.17;;;;;;;23.75;47.00;97297.00;20169134;29;20215;-69
2021/04/29 06:40:58;;;;;;;4.60;3.63;;;;;;;23.82;47.36;97316.06;20170273;29;20227;-69
2021/04/29 06:51:00;;;;;;;7.93;4.00;;;;;;;23.89;47.34;97340.38;20169314;29;20230;-69
2021/04/29 07:01:02;;;;;;;6.70;4.00;;;;;;;23.94;47.12;97350.19;20170324;29;20652;-69
2021/04/29 07:11:05;;;;;;;4.60;3.80;;;;;;;23.99;47.30;97377.34;20164648;29;20230;-69
2021/04/29 07:21:07;;;;;;;3.27;2.93;;;;;;;24.05;47.16;97381.72;20165282;29;20227;-69
2021/04/29 07:31:10;;;;;;;3.30;2.77;;;;;;;24.12;47.18;97400.81;20162356;29;20660;-69
2021/04/29 07:41:11;;;;;;;5.00;3.40;;;;;;;24.21;47.35;97391.69;20181105;29;20227;-67
2021/04/29 07:51:14;;;;;;;7.00;2.53;;;;;;;24.37;46.85;97391.13;20181179;29;20238;-69
2021/04/29 08:01:15;;;;;;;4.23;2.67;;;;;;;24.67;46.43;97392.03;20188490;29;20306;-69
2021/04/29 08:11:18;;;;;;;2.87;2.37;;;;;;;24.77;46.36;97399.44;20180117;29;20290;-69
2021/04/29 08:21:20;;;;;;;2.50;2.37;;;;;;;24.90;46.21;97411.59;20180865;29;20235;-68
2021/04/29 08:31:22;;;;;;;3.27;2.60;;;;;;;25.05;45.77;97419.91;20178855;29;20259;-67
2021/04/29 08:41:24;;;;;;;2.37;2.23;;;;;;;25.02;45.78;97415.09;20176346;29;20227;-68
2021/04/29 08:51:26;;;;;;;2.73;2.53;;;;;;;25.00;45.84;97430.25;20176689;29;20275;-69
2021/04/29 09:01:38;;;;;;;2.63;2.43;;;;;;;25.10;45.66;97433.16;20165369;29;20230;-69
2021/04/29 09:11:50;;;;;;;2.73;2.20;;;;;;;25.27;45.31;97440.19;20175728;29;20536;-68
2021/04/29 09:21:52;;;;;;;2.33;2.20;;;;;;;25.36;45.48;97438.09;20158798;29;20262;-69
2021/04/29 09:31:54;;;;;;;2.10;2.00;;;;;;;25.48;45.08;97436.34;20173111;29;20222;-69
2021/04/29 09:41:56;;;;;;;2.00;1.90;;;;;;;25.28;45.98;97435.75;20179317;29;20266;-69
2021/04/29 09:51:59;;;;;;;4.60;2.87;;;;;;;25.43;45.61;97438.84;20191454;29;20227;-69
2021/04/29 10:02:01;;;;;;;3.57;1.90;;;;;;;25.65;44.97;97429.47;20177584;29;20341;-69
2021/04/29 10:12:05;;;;;;;3.30;1.70;;;;;;;25.65;45.19;97437.34;20158967;29;20211;-69
2021/04/29 10:22:07;;;;;;;9.53;2.73;;;;;;;25.67;44.16;97440.56;20175577;29;20631;-70
2021/04/29 10:32:12;;;;;;;10.17;3.03;;;;;;;25.84;43.79;97436.25;20168752;29;20295;-70
2021/04/29 10:42:13;;;;;;;3.97;2.27;;;;;;;25.79;44.37;97412.50;20171226;29;20366;-70
2021/04/29 10:52:16;;;;;;;3.47;1.80;;;;;;;25.99;43.94;97426.94;20169180;29;20641;-69
2021/04/29 11:02:24;;;;;;;4.40;2.00;;;;;;;25.90;44.51;97417.00;20164546;29;20564;-69
2021/04/29 11:12:41;;;;;;;2.77;2.00;;;;;;;26.04;44.10;97394.78;20173724;29;20222;-69
2021/04/29 11:22:49;;;;;;;3.00;2.00;;;;;;;25.90;44.53;97388.13;20169171;29;20589;-69
2021/04/29 11:32:55;;;;;;;3.70;2.00;;;;;;;25.92;44.42;97380.84;20168124;29;20286;-68
2021/04/29 11:42:57;;;;;;;2.43;1.80;;;;;;;25.63;45.10;97392.97;20165954;29;20223;-68
2021/04/29 11:53:08;;;;;;;2.53;1.60;;;;;;;25.54;45.38;97396.91;20168104;29;20211;-68
2021/04/29 12:03:10;;;;;;;1.60;1.50;;;;;;;25.51;45.59;97399.19;20167629;29;20659;-68
2021/04/29 12:13:12;;;;;;;2.30;1.57;;;;;;;25.39;45.73;97421.94;20166336;29;20727;-68
2021/04/29 12:23:14;;;;;;;3.37;2.80;;;;;;;25.33;44.48;97443.78;20162220;29;20227;-68
2021/04/29 12:33:19;;;;;;;4.33;3.97;;;;;;;25.18;42.71;97425.00;20177865;29;20215;-68
2021/04/29 12:43:21;;;;;;;10.17;4.80;;;;;;;25.00;41.47;97438.09;20174969;29;20287;-68
2021/04/29 12:53:24;;;;;;;5.63;3.83;;;;;;;24.94;42.32;97459.94;20163966;29;20280;-68
2021/04/29 13:03:33;;;;;;;5.63;3.93;;;;;;;25.11;42.03;97481.94;20171372;29;20255;-68
2021/04/29 13:13:35;;;;;;;6.43;4.43;;;;;;;25.01;43.16;97510.47;20184059;29;20219;-68
2021/04/29 13:23:37;;;;;;;15.87;5.03;;;;;;;25.09;42.98;97518.06;20186478;29;20617;-68
2021/04/29 13:33:39;;;;;;;5.10;4.70;;;;;;;25.01;43.45;97510.47;20188474;29;20215;-68
2021/04/29 13:43:41;;;;;;;7.03;4.80;;;;;;;24.98;43.53;97471.59;20200072;29;20323;-68
2021/04/29 13:53:43;;;;;;;4.93;4.50;;;;;;;25.06;43.57;97466.88;20183210;29;20215;-69
2021/04/29 14:03:45;;;;;;;6.27;5.00;;;;;;;25.22;43.69;97452.38;20182718;29;20227;-66
2021/04/29 14:13:47;;;;;;;7.67;4.67;;;;;;;25.30;43.43;97423.22;20182467;29;20215;-70
2021/04/29 14:23:49;;;;;;;5.10;4.40;;;;;;;25.34;43.55;97429.63;20180038;29;20231;-69
2021/04/29 14:33:51;;;;;;;4.60;4.13;;;;;;;25.40;43.63;97434.03;20180562;29;20767;-68
2021/04/29 14:43:53;;;;;;;5.40;4.40;;;;;;;25.41;43.59;97443.50;20178244;29;20295;-69
2021/04/29 14:53:55;;;;;;;4.97;4.40;;;;;;;25.34;43.90;97430.44;20177577;29;20218;-69
2021/04/29 15:03:57;;;;;;;5.53;4.80;;;;;;;25.31;44.28;97411.72;20177598;29;20255;-69
2021/04/29 15:13:59;;;;;;;4.87;3.83;;;;;;;25.31;44.35;97415.16;20177191;29;20572;-68
2021/04/29 15:24:55;;;;;;;6.13;3.27;;;;;;;25.32;44.48;97421.19;20177737;29;20655;-66
2021/04/29 15:34:57;;;;;;;3.60;2.57;;;;;;;25.38;44.64;97436.88;20179945;29;20218;-69
2021/04/29 15:44:59;;;;;;;4.73;2.60;;;;;;;25.35;44.93;97441.75;20157747;29;20369;-68
2021/04/29 15:55:02;;;;;;;4.50;3.17;;;;;;;25.23;45.26;97451.34;20171426;29;20215;-68
2021/04/29 16:05:04;;;;;;;2.47;2.10;;;;;;;25.22;45.37;97463.66;20176867;29;20832;-67
2021/04/29 16:15:09;;;;;;;2.50;2.30;;;;;;;25.18;45.59;97466.94;20178102;29;20230;-67
2021/04/29 16:25:11;;;;;;;2.30;2.10;;;;;;;25.14;45.76;97499.84;20204941;29;20314;-68
2021/04/29 16:35:14;;;;;;;2.20;1.90;;;;;;;25.10;45.84;97496.06;20186713;29;20218;-69
2021/04/29 16:45:16;;;;;;;1.77;1.67;;;;;;;25.07;46.02;97496.50;20176176;29;20255;-68
2021/04/29 16:55:19;;;;;;;1.90;1.57;;;;;;;25.07;46.01;97501.75;20178209;29;20330;-69
2021/04/29 17:05:21;;;;;;;1.40;1.30;;;;;;;25.03;46.20;97496.16;20190634;29;20702;-68
2021/04/29 17:15:23;;;;;;;2.13;1.33;;;;;;;25.01;46.25;97498.19;20173699;29;20577;-68
2021/04/29 17:25:25;;;;;;;1.50;1.40;;;;;;;24.97;46.43;97504.84;20176001;29;20223;-68
2021/04/29 17:35:28;;;;;;;2.03;1.20;;;;;;;24.92;46.35;97503.91;20174408;29;20219;-68
2021/04/29 17:45:29;;;;;;;1.60;1.17;;;;;;;24.89;46.62;97520.06;20172027;29;20223;-68
2021/04/29 17:55:32;;;;;;;1.10;1.00;;;;;;;24.86;46.83;97534.41;20171331;29;20219;-69
2021/04/29 18:05:34;;;;;;;3.13;1.10;;;;;;;24.79;46.65;97544.13;20166756;29;20226;-67
2021/04/29 18:15:36;;;;;;;4.93;1.20;;;;;;;24.75;46.95;97541.13;20167893;29;20219;-70
2021/04/29 18:25:38;;;;;;;3.70;1.10;;;;;;;24.72;46.98;97546.81;20168429;29;20282;-70
2021/04/29 18:35:40;;;;;;;1.67;1.00;;;;;;;24.71;46.92;97544.41;20173553;29;20218;-70
2021/04/29 18:45:49;;;;;;;1.47;1.20;;;;;;;24.67;47.19;97559.72;20165832;29;20235;-70
2021/04/29 18:55:51;;;;;;;3.00;1.20;;;;;;;24.64;47.31;97575.88;20162923;29;20235;-70
2021/04/29 19:05:53;;;;;;;1.30;0.93;;;;;;;24.62;47.19;97580.50;20181888;29;20759;-69
2021/04/29 19:15:55;;;;;;;1.87;1.00;;;;;;;24.61;47.52;97592.03;20182920;29;20290;-67
2021/04/29 19:25:57;;;;;;;1.17;1.07;;;;;;;24.58;47.55;97599.50;20176894;29;20223;-69
2021/04/29 19:35:59;;;;;;;3.50;1.27;;;;;;;24.57;47.50;97611.78;20178216;29;20298;-71
2021/04/29 19:46:02;;;;;;;3.47;1.07;;;;;;;24.56;47.80;97620.66;20186339;29;20290;-65
2021/04/29 19:56:05;;;;;;;1.60;1.20;;;;;;;24.53;48.12;97626.31;20185335;29;20283;-70
2021/04/29 20:06:07;;;;;;;1.80;1.10;;;;;;;24.51;48.96;97633.59;20190717;29;20238;-69
2021/04/29 20:16:09;;;;;;;1.57;1.00;;;;;;;24.48;49.42;97638.44;20188273;29;20306;-69
2021/04/29 20:26:11;;;;;;;1.50;1.07;;;;;;;24.46;49.82;97646.53;20184685;29;20223;-70
2021/04/29 20:36:13;;;;;;;1.00;0.93;;;;;;;24.43;50.44;97652.16;20184614;29;20818;-69
2021/04/29 20:46:15;;;;;;;1.00;0.90;;;;;;;24.43;50.05;97678.34;20185321;29;20291;-69
2021/04/29 20:56:17;;;;;;;1.20;1.10;;;;;;;24.41;50.44;97706.59;20191355;29;20343;-66
2021/04/29 21:06:20;;;;;;;1.10;1.00;;;;;;;24.39;50.32;97729.53;20219137;29;20290;-69
2021/04/29 21:16:23;;;;;;;4.30;1.20;;;;;;;24.35;50.66;97754.53;20199489;29;20600;-68
2021/04/29 21:26:25;;;;;;;1.27;1.10;;;;;;;24.33;50.36;97776.72;20181094;29;20377;-68
2021/04/29 21:36:29;;;;;;;1.97;1.10;;;;;;;24.33;50.63;97782.72;20187548;29;20226;-68
2021/04/29 21:46:30;;;;;;;1.03;0.93;;;;;;;24.31;50.62;97803.09;20182738;29;20303;-69
2021/04/29 21:56:33;;;;;;;1.93;1.00;;;;;;;24.29;50.87;97807.75;20180931;29;20211;-68
2021/04/29 22:06:34;;;;;;;1.83;1.20;;;;;;;24.28;50.69;97815.81;20182653;29;20751;-68
2021/04/29 22:16:37;;;;;;;1.20;1.10;;;;;;;24.26;50.92;97834.34;20182678;29;20215;-69
